Time;durP1;ratioP1;P1;durP2;ratioP2;P2;SDS_P1;SDS_P2;PMS_P1;PMS_P2;Temp;Humidity;BMP_temperature;BMP_pressure;BME280_temperature;BME280_humidity;BME280_pressure;Samples;Min_cycle;Max_cycle;Signal;HPM_P1;HPM_P2
2023/05/06 00:00:03;;;;;;;3.13;2.10;;;13.90;99.90;;;;;;5034189;28;20513;-67
2023/05/06 00:02:30;;;;;;;3.40;2.30;;;13.90;99.90;;;;;;5034370;28;20516;-67
2023/05/06 00:04:57;;;;;;;3.20;2.47;;;13.90;99.90;;;;;;5034266;28;20974;-66
2023/05/06 00:07:26;;;;;;;3.40;2.30;;;13.80;99.90;;;;;;5034139;28;20520;-67
2023/05/06 00:09:53;;;;;;;4.47;3.03;;;13.80;99.90;;;;;;5034541;28;20518;-68
2023/05/06 00:12:22;;;;;;;3.73;2.40;;;13.90;99.90;;;;;;5034602;28;20470;-67
2023/05/06 00:14:49;;;;;;;4.20;2.40;;;13.90;99.90;;;;;;5034105;28;20481;-67
2023/05/06 00:17:17;;;;;;;3.10;2.77;;;13.80;99.90;;;;;;5061357;28;20495;-67
2023/05/06 00:19:51;;;;;;;5.93;3.13;;;13.70;99.90;;;;;;5074060;28;20863;-67
2023/05/06 00:22:22;;;;;;;3.73;2.93;;;13.70;99.90;;;;;;5073553;28;20436;-67
2023/05/06 00:24:51;;;;;;;3.83;2.43;;;13.70;99.90;;;;;;5073761;28;20448;-67
2023/05/06 00:27:19;;;;;;;5.00;2.90;;;13.70;99.90;;;;;;5073842;28;20476;-68
2023/05/06 00:29:46;;;;;;;7.73;2.90;;;13.60;99.90;;;;;;5073782;28;20784;-67
2023/05/06 00:32:13;;;;;;;3.40;2.67;;;13.60;99.90;;;;;;5073536;28;20519;-67
2023/05/06 00:34:40;;;;;;;3.50;2.60;;;13.50;99.90;;;;;;5073800;28;20560;-67
2023/05/06 00:37:07;;;;;;;3.63;2.27;;;13.50;99.90;;;;;;5073486;28;20476;-67
2023/05/06 00:39:35;;;;;;;3.47;2.20;;;13.50;99.90;;;;;;5073431;28;21033;-67
2023/05/06 00:42:07;;;;;;;4.10;2.43;;;13.40;99.90;;;;;;5073755;28;20472;-68
2023/05/06 00:44:34;;;;;;;4.03;2.03;;;13.50;99.90;;;;;;5073615;28;20468;-67
2023/05/06 00:47:04;;;;;;;2.60;1.93;;;13.40;99.90;;;;;;5073835;28;20490;-67
2023/05/06 00:49:31;;;;;;;3.50;2.10;;;13.40;99.90;;;;;;5073575;28;20501;-67
2023/05/06 00:52:03;;;;;;;2.90;2.30;;;13.30;99.90;;;;;;5073239;28;20472;-68
2023/05/06 00:54:32;;;;;;;3.23;2.50;;;13.30;99.90;;;;;;5073332;28;20582;-67
2023/05/06 00:57:00;;;;;;;11.30;3.10;;;13.30;99.90;;;;;;5072949;28;20472;-67
2023/05/06 00:59:28;;;;;;;3.83;2.40;;;13.30;99.90;;;;;;5073211;28;21063;-67
2023/05/06 01:01:58;;;;;;;3.13;2.30;;;13.30;99.90;;;;;;5073066;28;20534;-67
2023/05/06 01:04:28;;;;;;;3.70;2.00;;;13.20;99.90;;;;;;5072948;28;20448;-67
2023/05/06 01:07:03;;;;;;;2.47;1.87;;;13.30;99.90;;;;;;5073124;28;20447;-67
2023/05/06 01:09:41;;;;;;;3.00;2.30;;;13.20;99.90;;;;;;5073015;28;20848;-67
2023/05/06 01:12:15;;;;;;;2.87;1.73;;;13.20;99.90;;;;;;5072733;28;20472;-67
2023/05/06 01:14:49;;;;;;;4.20;2.43;;;13.30;99.90;;;;;;5073349;28;20839;-67
2023/05/06 01:17:18;;;;;;;5.03;2.13;;;13.30;99.90;;;;;;5072509;28;20573;-67
2023/05/06 01:19:48;;;;;;;3.53;2.10;;;13.30;99.90;;;;;;5073032;28;20443;-67
2023/05/06 01:22:16;;;;;;;2.93;2.20;;;13.20;99.90;;;;;;5072499;28;20440;-67
2023/05/06 01:24:45;;;;;;;2.60;1.90;;;13.20;99.90;;;;;;5072676;28;20514;-67
2023/05/06 01:27:18;;;;;;;3.70;2.40;;;13.20;99.90;;;;;;5072722;28;20483;-67
2023/05/06 01:29:47;;;;;;;3.23;2.10;;;13.20;99.90;;;;;;5072885;28;20436;-67
2023/05/06 01:32:39;;;;;;;3.23;2.43;;;13.20;99.90;;;;;;5072936;28;20475;-67
2023/05/06 01:35:20;;;;;;;2.77;2.00;;;13.10;99.90;;;;;;5072886;28;20547;-67
2023/05/06 01:37:54;;;;;;;3.13;2.57;;;13.10;99.90;;;;;;5072607;28;21025;-68
2023/05/06 01:40:26;;;;;;;5.03;2.70;;;13.00;99.90;;;;;;5072878;28;20440;-67
2023/05/06 01:42:54;;;;;;;4.07;3.27;;;13.00;99.90;;;;;;5073084;28;20643;-67
2023/05/06 01:45:25;;;;;;;6.32;3.47;;;12.90;99.90;;;;;;5072955;28;20444;-67
2023/05/06 01:47:53;;;;;;;5.43;3.30;;;12.80;99.90;;;;;;5072892;28;20250;-67
2023/05/06 01:50:20;;;;;;;5.30;3.47;;;12.80;99.90;;;;;;5072323;28;20519;-67
2023/05/06 01:52:57;;;;;;;3.50;2.60;;;12.70;99.90;;;;;;5072915;28;20285;-67
2023/05/06 01:55:26;;;;;;;4.25;3.20;;;12.70;99.90;;;;;;5072753;28;20538;-67
2023/05/06 01:57:53;;;;;;;3.43;2.40;;;12.70;99.90;;;;;;5072867;28;20278;-67
2023/05/06 02:00:23;;;;;;;6.05;3.00;;;12.70;99.90;;;;;;5072376;28;20515;-67
2023/05/06 02:02:50;;;;;;;5.65;2.95;;;12.60;99.90;;;;;;5072207;28;20190;-67
2023/05/06 02:05:20;;;;;;;3.60;2.50;;;12.60;99.90;;;;;;5072397;28;20240;-67
2023/05/06 02:07:49;;;;;;;6.73;3.10;;;12.50;99.90;;;;;;5072614;28;20821;-67
2023/05/06 02:10:17;;;;;;;3.38;2.45;;;12.60;99.90;;;;;;5072541;28;20523;-67
2023/05/06 02:12:51;;;;;;;3.30;2.50;;;12.60;99.90;;;;;;5072477;28;20209;-67
2023/05/06 02:15:22;;;;;;;6.73;2.47;;;12.60;99.90;;;;;;5072581;28;20467;-67
2023/05/06 02:17:51;;;;;;;3.07;2.10;;;12.60;99.90;;;;;;5071806;28;20884;-67
2023/05/06 02:20:18;;;;;;;2.63;1.70;;;12.70;99.90;;;;;;5072295;28;20432;-67
2023/05/06 02:22:45;;;;;;;2.70;1.80;;;12.70;99.90;;;;;;5072489;28;20483;-67
2023/05/06 02:25:12;;;;;;;2.87;2.00;;;12.70;99.90;;;;;;5075864;28;20782;-67
2023/05/06 02:27:39;;;;;;;5.77;3.07;;;12.70;99.90;;;;;;5076269;28;20531;-67
2023/05/06 02:30:08;;;;;;;3.53;2.30;;;12.70;99.90;;;;;;5076231;28;20526;-67
2023/05/06 02:32:40;;;;;;;4.40;2.53;;;12.70;99.90;;;;;;5076141;28;20525;-67
2023/05/06 02:35:08;;;;;;;2.72;2.10;;;12.60;99.90;;;;;;5076109;28;20507;-67
2023/05/06 02:37:40;;;;;;;2.60;1.95;;;12.60;99.90;;;;;;5075509;28;20272;-67
2023/05/06 02:40:10;;;;;;;2.90;2.00;;;12.60;99.90;;;;;;5075678;28;20270;-67
2023/05/06 02:42:37;;;;;;;2.50;1.77;;;12.50;99.90;;;;;;5075961;28;20436;-67
2023/05/06 02:45:05;;;;;;;3.47;2.30;;;12.40;99.90;;;;;;5075405;28;20641;-66
2023/05/06 02:47:33;;;;;;;2.80;1.83;;;12.30;99.90;;;;;;5075916;28;20432;-67
2023/05/06 02:50:02;;;;;;;3.85;2.05;;;12.30;99.90;;;;;;5075596;28;20284;-67
2023/05/06 02:52:29;;;;;;;2.70;2.30;;;12.30;99.90;;;;;;5075782;28;20189;-67
2023/05/06 02:55:01;;;;;;;3.97;2.10;;;12.30;99.90;;;;;;5075923;28;20200;-67
2023/05/06 02:57:30;;;;;;;2.70;1.93;;;12.30;99.90;;;;;;5075124;28;20694;-67
2023/05/06 02:59:57;;;;;;;3.10;2.42;;;12.30;99.90;;;;;;5075552;28;20529;-66
2023/05/06 03:02:24;;;;;;;3.50;2.45;;;12.30;99.90;;;;;;5075758;28;20282;-67
2023/05/06 03:04:53;;;;;;;4.40;2.28;;;12.30;99.90;;;;;;5075473;28;20262;-67
2023/05/06 03:07:22;;;;;;;2.53;1.93;;;12.30;99.90;;;;;;5075808;28;20662;-67
2023/05/06 03:09:53;;;;;;;6.10;2.30;;;12.40;99.90;;;;;;5075354;28;20480;-67
2023/05/06 03:12:20;;;;;;;2.80;2.20;;;12.40;99.90;;;;;;5075325;28;20432;-67
2023/05/06 03:14:47;;;;;;;4.50;2.22;;;12.40;99.90;;;;;;5075187;28;20375;-67
2023/05/06 03:17:14;;;;;;;3.60;3.00;;;12.40;99.90;;;;;;5074793;28;20308;-67
2023/05/06 03:19:43;;;;;;;3.70;3.28;;;12.30;99.90;;;;;;5075140;28;20324;-67
2023/05/06 03:22:12;;;;;;;4.03;3.30;;;12.30;99.90;;;;;;5075089;28;20232;-67
2023/05/06 03:24:39;;;;;;;3.50;2.33;;;12.30;99.90;;;;;;5075189;28;20846;-67
2023/05/06 03:27:06;;;;;;;4.80;2.80;;;12.30;99.90;;;;;;5074905;28;20239;-67
2023/05/06 03:29:33;;;;;;;9.88;6.88;;;12.30;99.90;;;;;;5074957;28;20217;-67
2023/05/06 03:32:04;;;;;;;7.70;5.15;;;12.30;99.90;;;;;;5074911;28;20221;-66
2023/05/06 03:34:31;;;;;;;4.10;3.45;;;12.30;99.90;;;;;;5074942;28;20334;-67
2023/05/06 03:36:59;;;;;;;4.30;3.20;;;12.30;99.90;;;;;;5074396;28;20285;-67
2023/05/06 03:39:27;;;;;;;4.03;3.15;;;12.30;99.90;;;;;;5074985;28;20226;-67
2023/05/06 03:41:54;;;;;;;4.20;3.40;;;12.30;99.90;;;;;;5074528;28;20740;-67
2023/05/06 03:44:21;;;;;;;4.30;3.10;;;12.30;99.90;;;;;;5074629;28;20247;-67
2023/05/06 03:46:49;;;;;;;7.50;4.32;;;12.30;99.90;;;;;;5074727;28;20732;-67
2023/05/06 03:49:16;;;;;;;3.80;2.78;;;12.30;99.90;;;;;;5074333;28;20244;-67
2023/05/06 03:51:43;;;;;;;5.60;3.50;;;12.30;99.90;;;;;;5074623;28;20272;-67
2023/05/06 03:54:12;;;;;;;4.28;3.33;;;12.30;99.90;;;;;;5074225;28;20247;-67
2023/05/06 03:56:40;;;;;;;5.65;3.47;;;12.30;99.90;;;;;;5074567;28;20281;-68
2023/05/06 03:59:07;;;;;;;6.30;4.65;;;12.40;99.90;;;;;;5074630;28;20276;-67
2023/05/06 04:01:35;;;;;;;4.97;4.10;;;12.40;99.90;;;;;;5073626;28;20248;-67
2023/05/06 04:04:02;;;;;;;5.10;3.22;;;12.30;99.90;;;;;;5074303;28;20439;-67
2023/05/06 04:06:29;;;;;;;5.22;4.07;;;12.30;99.90;;;;;;5074482;28;20225;-67
2023/05/06 04:08:56;;;;;;;4.80;4.13;;;12.30;99.90;;;;;;5074383;28;20197;-67
2023/05/06 04:11:27;;;;;;;6.68;3.72;;;12.30;99.90;;;;;;5073937;28;20236;-67
2023/05/06 04:13:56;;;;;;;5.60;3.70;;;12.30;99.90;;;;;;5074214;28;20193;-67
2023/05/06 04:16:23;;;;;;;6.95;3.53;;;12.30;99.90;;;;;;5074012;28;20499;-67
2023/05/06 04:18:51;;;;;;;4.55;3.47;;;12.20;99.90;;;;;;5074025;28;20279;-67
2023/05/06 04:21:18;;;;;;;4.03;3.55;;;12.20;99.90;;;;;;5073440;28;20190;-67
2023/05/06 04:23:49;;;;;;;5.32;3.83;;;12.20;99.90;;;;;;5073795;28;20259;-67
2023/05/06 04:26:16;;;;;;;5.20;3.75;;;12.20;99.90;;;;;;5073748;28;20731;-67
2023/05/06 04:28:43;;;;;;;4.40;3.97;;;12.20;99.90;;;;;;5073823;28;20229;-67
2023/05/06 04:31:13;;;;;;;5.65;4.22;;;12.20;99.90;;;;;;5073540;28;20232;-67
2023/05/06 04:33:41;;;;;;;4.40;3.92;;;12.20;99.90;;;;;;5073851;28;20190;-67
2023/05/06 04:36:09;;;;;;;5.65;4.30;;;12.20;99.90;;;;;;5073787;28;20190;-67
2023/05/06 04:38:36;;;;;;;5.25;4.22;;;12.30;99.90;;;;;;5073225;28;20743;-67
2023/05/06 04:41:04;;;;;;;3.60;3.10;;;12.30;99.90;;;;;;5073334;28;20201;-67
2023/05/06 04:43:31;;;;;;;4.57;2.85;;;12.40;99.90;;;;;;5073069;28;20440;-67
2023/05/06 04:46:00;;;;;;;5.88;3.35;;;12.50;99.90;;;;;;5073149;28;20189;-67
2023/05/06 04:48:28;;;;;;;3.87;3.17;;;12.60;99.90;;;;;;5072167;28;20280;-67
2023/05/06 04:50:57;;;;;;;4.07;3.22;;;12.70;99.90;;;;;;5073626;28;20518;-67
2023/05/06 04:53:24;;;;;;;4.15;3.45;;;12.80;99.90;;;;;;5073217;28;20302;-67
2023/05/06 04:55:51;;;;;;;5.60;3.40;;;12.80;99.90;;;;;;5073173;28;20239;-67
2023/05/06 04:58:18;;;;;;;6.70;4.18;;;12.80;99.90;;;;;;5073264;28;20214;-67
2023/05/06 05:00:47;;;;;;;5.05;3.88;;;12.70;99.90;;;;;;5073080;28;20197;-67
2023/05/06 05:03:16;;;;;;;4.80;3.47;;;12.70;99.90;;;;;;5073251;28;20611;-67
2023/05/06 05:05:44;;;;;;;4.50;3.50;;;12.80;99.90;;;;;;5072846;28;20225;-67
2023/05/06 05:08:12;;;;;;;9.53;3.47;;;12.80;99.90;;;;;;5072885;28;20225;-67
2023/05/06 05:10:41;;;;;;;4.82;2.95;;;12.90;99.90;;;;;;5072758;28;20442;-67
2023/05/06 05:13:10;;;;;;;6.50;3.00;;;12.90;99.90;;;;;;5072857;28;20208;-67
2023/05/06 05:15:37;;;;;;;7.50;3.50;;;13.00;99.90;;;;;;5073110;28;20479;-67
2023/05/06 05:18:04;;;;;;;5.33;2.73;;;13.10;99.90;;;;;;5072494;28;20225;-67
2023/05/06 05:20:32;;;;;;;3.80;3.07;;;13.20;99.90;;;;;;5072526;28;20470;-67
2023/05/06 05:23:00;;;;;;;3.10;2.50;;;13.40;99.90;;;;;;5072661;28;20467;-67
2023/05/06 05:25:27;;;;;;;4.33;2.27;;;13.60;99.90;;;;;;5072763;28;20444;-67
2023/05/06 05:27:54;;;;;;;3.53;2.87;;;13.80;99.90;;;;;;5072775;28;20523;-67
2023/05/06 05:30:21;;;;;;;3.33;2.33;;;14.00;99.90;;;;;;5073021;28;20970;-67
2023/05/06 05:32:51;;;;;;;3.80;2.40;;;14.10;99.90;;;;;;5072915;28;20539;-67
2023/05/06 05:35:18;;;;;;;6.50;3.77;;;14.10;99.90;;;;;;5072891;28;20468;-67
2023/05/06 05:37:45;;;;;;;5.10;3.07;;;14.20;99.90;;;;;;5072922;28;20464;-67
2023/05/06 05:40:14;;;;;;;3.30;2.50;;;14.10;99.90;;;;;;5072488;28;20836;-67
2023/05/06 05:42:41;;;;;;;3.23;2.40;;;14.20;99.90;;;;;;5072658;28;20474;-67
2023/05/06 05:45:09;;;;;;;4.60;3.20;;;14.20;99.90;;;;;;5072572;28;20458;-67
2023/05/06 05:47:38;;;;;;;3.17;2.60;;;14.30;99.90;;;;;;5072634;28;20444;-67
2023/05/06 05:50:08;;;;;;;4.00;2.67;;;14.30;99.90;;;;;;5072761;28;20472;-67
2023/05/06 05:52:35;;;;;;;4.13;2.87;;;14.50;99.90;;;;;;5072203;28;20472;-67
2023/05/06 05:55:04;;;;;;;3.00;2.20;;;14.50;99.90;;;;;;5072614;28;20494;-67
2023/05/06 05:57:33;;;;;;;3.40;2.60;;;14.60;99.90;;;;;;5072596;28;20526;-67
2023/05/06 06:00:00;;;;;;;2.80;1.93;;;14.70;98.90;;;;;;5075655;28;20566;-67
2023/05/06 06:02:29;;;;;;;3.00;2.10;;;14.80;98.30;;;;;;5076124;28;20483;-67
2023/05/06 06:04:56;;;;;;;3.97;3.00;;;14.90;98.00;;;;;;5076718;28;20428;-67
2023/05/06 06:07:23;;;;;;;6.43;3.40;;;15.00;98.00;;;;;;5076630;28;20444;-67
2023/05/06 06:09:50;;;;;;;4.90;3.27;;;15.10;98.00;;;;;;5076061;28;20501;-67
2023/05/06 06:12:18;;;;;;;4.40;2.53;;;15.20;97.80;;;;;;5076049;28;20448;-67
2023/05/06 06:14:46;;;;;;;7.23;3.10;;;15.30;97.20;;;;;;5076419;28;20435;-67
2023/05/06 06:17:15;;;;;;;2.40;1.90;;;15.50;96.90;;;;;;5075761;28;20471;-67
2023/05/06 06:19:45;;;;;;;3.57;2.13;;;15.70;96.80;;;;;;5076072;28;21053;-67
2023/05/06 06:22:12;;;;;;;4.40;2.70;;;16.00;96.20;;;;;;5076418;28;20786;-67
2023/05/06 06:24:39;;;;;;;3.03;2.13;;;16.10;96.00;;;;;;5076144;28;20479;-67
2023/05/06 06:27:08;;;;;;;3.50;2.30;;;16.30;95.30;;;;;;5076319;28;20447;-67
2023/05/06 06:29:37;;;;;;;2.90;2.10;;;16.40;94.50;;;;;;5075741;28;20526;-67
2023/05/06 06:32:06;;;;;;;3.00;1.97;;;16.40;94.40;;;;;;5075414;28;20548;-67
2023/05/06 06:34:33;;;;;;;5.30;2.57;;;16.50;94.50;;;;;;5075723;28;20436;-67
2023/05/06 06:37:01;;;;;;;7.20;2.10;;;16.60;94.30;;;;;;5075985;28;20548;-67
2023/05/06 06:39:28;;;;;;;4.37;2.17;;;16.80;94.40;;;;;;5075894;28;20838;-66
2023/05/06 06:41:57;;;;;;;3.13;2.07;;;17.00;93.90;;;;;;5075715;28;20843;-67
2023/05/06 06:44:24;;;;;;;4.60;1.90;;;17.20;93.40;;;;;;5075990;28;20444;-67
2023/05/06 06:46:52;;;;;;;2.87;1.90;;;17.30;92.80;;;;;;5075625;28;20439;-66
2023/05/06 06:49:21;;;;;;;4.43;1.83;;;17.60;92.80;;;;;;5075698;28;20448;-66
2023/05/06 06:51:51;;;;;;;2.83;1.90;;;17.80;92.40;;;;;;5075598;28;20436;-67
2023/05/06 06:54:18;;;;;;;4.00;1.77;;;18.00;92.10;;;;;;5075567;28;20559;-68
2023/05/06 06:56:47;;;;;;;4.30;2.17;;;18.20;91.80;;;;;;5076180;28;20531;-68
2023/05/06 06:59:14;;;;;;;4.97;2.07;;;18.50;91.00;;;;;;5076259;28;20472;-67
2023/05/06 07:01:42;;;;;;;2.70;1.93;;;18.60;90.50;;;;;;5076050;28;20444;-67
2023/05/06 07:04:09;;;;;;;2.83;1.73;;;18.60;90.30;;;;;;5075100;28;20532;-68
2023/05/06 07:06:37;;;;;;;3.00;1.60;;;18.70;90.00;;;;;;5075571;28;20486;-68
2023/05/06 07:09:04;;;;;;;3.10;2.10;;;18.70;89.40;;;;;;5075580;28;20854;-68
2023/05/06 07:11:35;;;;;;;2.80;1.73;;;18.70;88.40;;;;;;5074324;28;20946;-68
2023/05/06 07:14:02;;;;;;;2.40;1.60;;;18.70;89.30;;;;;;5075405;28;20529;-68
2023/05/06 07:16:29;;;;;;;3.80;2.10;;;18.80;89.80;;;;;;5075065;28;20912;-68
2023/05/06 07:18:56;;;;;;;2.60;1.63;;;18.90;89.20;;;;;;5075280;28;20439;-67
2023/05/06 07:21:23;;;;;;;3.30;1.50;;;18.90;88.30;;;;;;5074859;28;20485;-68
2023/05/06 07:23:52;;;;;;;4.00;1.70;;;18.90;86.20;;;;;;5074753;28;20480;-68
2023/05/06 07:26:20;;;;;;;3.30;1.80;;;18.90;84.00;;;;;;5075283;28;20969;-68
2023/05/06 07:28:47;;;;;;;4.60;2.30;;;18.90;83.20;;;;;;5075191;28;20447;-68
2023/05/06 07:31:19;;;;;;;3.30;2.27;;;18.90;83.00;;;;;;5075028;28;20557;-67
2023/05/06 07:33:46;;;;;;;3.80;2.00;;;18.80;82.50;;;;;;5074937;28;20535;-67
2023/05/06 07:36:13;;;;;;;7.87;1.80;;;18.80;84.90;;;;;;5075214;28;20836;-67
2023/05/06 07:38:43;;;;;;;3.47;1.80;;;18.80;86.40;;;;;;5074663;28;20436;-68
2023/05/06 07:41:11;;;;;;;3.60;2.33;;;18.90;85.10;;;;;;5074921;28;20479;-68
2023/05/06 07:43:38;;;;;;;6.23;2.07;;;19.00;85.20;;;;;;5074877;28;20432;-68
2023/05/06 07:46:05;;;;;;;4.30;2.33;;;19.10;85.40;;;;;;5074681;28;20439;-68
2023/05/06 07:48:37;;;;;;;3.70;2.20;;;19.20;84.50;;;;;;5074416;28;20471;-68
2023/05/06 07:51:06;;;;;;;4.00;1.97;;;19.20;83.00;;;;;;5074789;28;20431;-68
2023/05/06 07:53:33;;;;;;;2.60;1.70;;;19.30;82.60;;;;;;5074693;28;20464;-68
2023/05/06 07:56:02;;;;;;;5.67;2.73;;;19.30;83.00;;;;;;5074469;28;20475;-68
2023/05/06 07:58:31;;;;;;;5.83;2.47;;;19.30;83.40;;;;;;5074570;28;20439;-68
2023/05/06 08:00:58;;;;;;;3.97;1.97;;;19.30;84.00;;;;;;5074313;28;20490;-68
2023/05/06 08:03:27;;;;;;;3.43;2.37;;;19.30;85.80;;;;;;5074662;28;20471;-68
2023/05/06 08:05:54;;;;;;;3.30;2.63;;;19.30;83.70;;;;;;5074608;28;20436;-68
2023/05/06 08:08:26;;;;;;;3.03;2.37;;;19.40;82.90;;;;;;5074371;28;20824;-67
2023/05/06 08:10:53;;;;;;;3.87;3.00;;;19.40;83.30;;;;;;5074380;28;20477;-68
2023/05/06 08:13:23;;;;;;;5.80;3.00;;;19.40;84.20;;;;;;5073947;28;20440;-67
2023/05/06 08:15:51;;;;;;;4.67;2.10;;;19.50;83.90;;;;;;5073929;28;20523;-68
2023/05/06 08:18:18;;;;;;;4.77;3.00;;;19.60;84.90;;;;;;5074159;28;20979;-68
2023/05/06 08:20:45;;;;;;;3.90;2.30;;;19.80;83.70;;;;;;5074020;28;20526;-68
2023/05/06 08:23:14;;;;;;;4.23;2.73;;;20.30;84.80;;;;;;5073601;28;20483;-68
2023/05/06 08:25:44;;;;;;;4.80;3.40;;;21.00;84.60;;;;;;5073986;28;20439;-68
2023/05/06 08:28:10;;;;;;;3.17;2.23;;;21.50;81.90;;;;;;5073478;28;20475;-68
2023/05/06 08:30:37;;;;;;;5.47;2.90;;;21.70;78.60;;;;;;5073500;28;20498;-68
2023/05/06 08:33:06;;;;;;;5.23;3.40;;;21.60;77.20;;;;;;5073685;28;20476;-68
2023/05/06 08:35:33;;;;;;;4.20;3.20;;;21.40;74.90;;;;;;5073656;28;20478;-68
2023/05/06 08:38:05;;;;;;;4.03;3.23;;;21.20;76.00;;;;;;5073767;28;20447;-68
2023/05/06 08:40:33;;;;;;;4.57;3.53;;;21.10;79.10;;;;;;5073490;28;20998;-68
2023/05/06 08:43:04;;;;;;;3.97;3.10;;;21.20;78.20;;;;;;5073475;28;20486;-68
2023/05/06 08:45:32;;;;;;;4.27;3.30;;;21.10;77.30;;;;;;5073393;28;20585;-68
2023/05/06 08:47:59;;;;;;;5.90;3.40;;;21.00;77.00;;;;;;5073177;28;20482;-68
2023/05/06 08:50:28;;;;;;;4.57;3.43;;;20.90;78.60;;;;;;5073816;28;20470;-68
2023/05/06 08:52:55;;;;;;;4.27;3.20;;;21.20;79.50;;;;;;5073087;28;20919;-68
2023/05/06 08:55:24;;;;;;;3.70;3.30;;;21.70;76.30;;;;;;5073262;28;20515;-68
2023/05/06 08:57:53;;;;;;;5.20;3.33;;;22.20;74.70;;;;;;5073553;28;20490;-68
2023/05/06 09:00:22;;;;;;;8.63;4.07;;;22.70;70.40;;;;;;5073334;28;20895;-68
2023/05/06 09:02:49;;;;;;;4.40;3.80;;;23.00;69.40;;;;;;5073176;28;20440;-68
2023/05/06 09:05:16;;;;;;;5.30;4.03;;;23.30;69.30;;;;;;5073139;28;20535;-68
2023/05/06 09:07:45;;;;;;;5.03;3.60;;;23.40;68.00;;;;;;5073372;28;20471;-68
2023/05/06 09:10:13;;;;;;;6.27;4.20;;;23.50;66.70;;;;;;5072857;28;20447;-68
2023/05/06 09:12:40;;;;;;;7.93;4.23;;;23.70;66.20;;;;;;5072974;28;20945;-68
2023/05/06 09:15:08;;;;;;;5.43;3.80;;;23.80;65.70;;;;;;5072990;28;20505;-68
2023/05/06 09:17:49;;;;;;;7.53;4.10;;;23.90;64.80;;;;;;5072640;28;20970;-68
2023/05/06 09:20:16;;;;;;;5.50;3.90;;;23.90;63.40;;;;;;5073094;28;20490;-68
2023/05/06 09:22:45;;;;;;;3.97;3.20;;;24.00;61.80;;;;;;5073040;28;20502;-68
2023/05/06 09:25:12;;;;;;;4.80;3.67;;;24.10;61.60;;;;;;5072948;28;20444;-68
2023/05/06 09:27:39;;;;;;;4.27;3.17;;;24.00;62.40;;;;;;5072820;28;20444;-68
2023/05/06 09:30:08;;;;;;;3.90;3.10;;;24.00;61.50;;;;;;5073036;28;20509;-68
2023/05/06 09:32:40;;;;;;;5.87;3.37;;;24.20;60.10;;;;;;5072354;28;20909;-69
2023/05/06 09:35:08;;;;;;;5.20;2.90;;;24.60;59.40;;;;;;5072233;28;20476;-68
2023/05/06 09:37:35;;;;;;;5.17;3.00;;;24.80;60.20;;;;;;5072555;28;20452;-67
2023/05/06 09:40:05;;;;;;;10.00;3.10;;;24.90;59.40;;;;;;5072460;28;20487;-68
2023/05/06 09:42:34;;;;;;;5.63;3.00;;;24.80;58.60;;;;;;5072557;28;20813;-68
2023/05/06 09:45:09;;;;;;;5.63;2.73;;;24.50;57.90;;;;;;5072319;28;20436;-68
2023/05/06 09:47:36;;;;;;;6.43;2.90;;;24.20;58.10;;;;;;5072424;28;20496;-68
2023/05/06 09:50:04;;;;;;;5.43;3.00;;;24.00;57.70;;;;;;5072664;28;20448;-68
2023/05/06 09:52:31;;;;;;;4.33;2.90;;;24.10;59.90;;;;;;5072420;28;20456;-69
2023/05/06 09:54:59;;;;;;;3.70;2.60;;;24.30;59.50;;;;;;5072440;28;20475;-68
2023/05/06 09:57:29;;;;;;;7.47;2.80;;;24.40;58.60;;;;;;5072635;28;20451;-68
2023/05/06 09:59:58;;;;;;;6.90;3.00;;;24.30;58.30;;;;;;5072496;28;20472;-68
2023/05/06 10:02:27;;;;;;;3.70;2.70;;;24.10;58.70;;;;;;5072068;28;20440;-68
2023/05/06 10:04:55;;;;;;;5.07;2.40;;;23.80;58.40;;;;;;5072901;28;20483;-68
2023/05/06 10:07:24;;;;;;;4.00;2.97;;;23.50;59.00;;;;;;5072658;28;20436;-68
2023/05/06 10:09:52;;;;;;;5.73;2.93;;;23.10;59.60;;;;;;5072491;28;20443;-68
2023/05/06 10:12:20;;;;;;;4.03;3.10;;;22.70;60.60;;;;;;5072546;28;20505;-68
2023/05/06 10:14:54;;;;;;;4.30;3.10;;;22.40;62.30;;;;;;5072592;28;20451;-68
2023/05/06 10:17:25;;;;;;;6.70;4.20;;;22.20;64.40;;;;;;5071669;28;20499;-68
2023/05/06 10:19:57;;;;;;;9.80;7.70;;;22.10;67.10;;;;;;5072436;28;20542;-68
2023/05/06 10:22:36;;;;;;;5.50;3.67;;;21.90;68.70;;;;;;5072378;28;20439;-68
2023/05/06 10:25:07;;;;;;;6.87;5.43;;;21.80;69.70;;;;;;5072246;28;20436;-68
2023/05/06 10:27:39;;;;;;;4.33;3.60;;;21.70;71.20;;;;;;5072171;28;20443;-68
2023/05/06 10:30:10;;;;;;;4.80;3.77;;;21.70;71.80;;;;;;5072404;28;20973;-68
2023/05/06 10:32:43;;;;;;;5.20;3.50;;;21.80;74.20;;;;;;5072121;28;20510;-68
2023/05/06 10:35:15;;;;;;;4.10;3.43;;;21.90;73.50;;;;;;5072197;28;20431;-68
2023/05/06 10:37:45;;;;;;;4.40;3.93;;;21.90;72.60;;;;;;5071983;28;20448;-68
2023/05/06 10:40:13;;;;;;;4.17;3.50;;;21.80;72.40;;;;;;5072054;28;20857;-68
2023/05/06 10:42:45;;;;;;;5.10;3.47;;;21.70;71.60;;;;;;5071671;28;20472;-68
2023/05/06 10:45:15;;;;;;;4.47;4.07;;;21.60;70.30;;;;;;5073371;28;20536;-68
2023/05/06 10:48:08;;;;;;;3.73;3.00;;;21.60;71.50;;;;;;5075837;28;20439;-68
2023/05/06 10:50:37;;;;;;;4.30;3.10;;;21.60;71.30;;;;;;5075319;28;20435;-68
2023/05/06 10:53:09;;;;;;;5.17;2.80;;;21.80;72.10;;;;;;5075489;28;20444;-68
2023/05/06 10:55:37;;;;;;;4.93;3.03;;;22.20;71.60;;;;;;5075546;28;20436;-68
2023/05/06 10:58:12;;;;;;;7.40;3.77;;;22.70;69.30;;;;;;5075620;28;20520;-67
2023/05/06 11:00:41;;;;;;;9.57;2.87;;;23.20;66.70;;;;;;5075327;28;20548;-67
2023/05/06 11:03:11;;;;;;;4.03;2.60;;;23.60;65.50;;;;;;5075152;28;20861;-68
2023/05/06 11:05:48;;;;;;;3.80;2.63;;;23.90;65.70;;;;;;5075093;28;20442;-68
2023/05/06 11:08:21;;;;;;;5.93;2.60;;;24.20;64.30;;;;;;5075546;28;20526;-68
2023/05/06 11:10:53;;;;;;;7.30;3.50;;;24.60;63.00;;;;;;5075495;28;20436;-67
2023/05/06 11:13:22;;;;;;;3.87;2.67;;;24.80;61.10;;;;;;5074857;28;20977;-68
2023/05/06 11:15:51;;;;;;;4.20;2.60;;;25.20;62.30;;;;;;5074988;28;20448;-68
2023/05/06 11:18:44;;;;;;;6.27;2.70;;;25.50;60.70;;;;;;5074852;28;20435;-68
2023/05/06 11:21:36;;;;;;;5.30;2.67;;;25.60;56.40;;;;;;5075076;28;20490;-68
2023/05/06 11:24:08;;;;;;;4.83;3.50;;;25.30;58.40;;;;;;5075091;28;20805;-68
2023/05/06 11:26:35;;;;;;;6.23;3.17;;;25.10;58.70;;;;;;5074732;28;20969;-67
2023/05/06 11:29:04;;;;;;;8.10;3.33;;;25.10;58.70;;;;;;5074569;28;20447;-67
2023/05/06 11:31:40;;;;;;;4.70;2.93;;;25.00;58.20;;;;;;5074978;28;20420;-67
2023/05/06 11:34:10;;;;;;;4.57;3.00;;;24.70;58.80;;;;;;5074746;28;20506;-67
2023/05/06 11:36:49;;;;;;;5.90;3.10;;;24.40;59.60;;;;;;5074430;28;20483;-67
2023/05/06 11:39:21;;;;;;;4.00;3.07;;;24.00;59.80;;;;;;5075208;28;20440;-67
2023/05/06 11:41:48;;;;;;;6.90;3.53;;;23.60;62.40;;;;;;5074704;28;20502;-67
2023/05/06 11:44:27;;;;;;;6.37;3.37;;;23.30;65.60;;;;;;5074963;28;20914;-67
2023/05/06 11:47:00;;;;;;;4.40;2.77;;;22.90;67.40;;;;;;5074898;28;20493;-67
2023/05/06 11:49:27;;;;;;;4.60;2.90;;;22.50;68.80;;;;;;5074964;28;20424;-67
2023/05/06 11:51:55;;;;;;;3.93;2.63;;;22.30;70.10;;;;;;5074605;28;20914;-67
2023/05/06 11:54:23;;;;;;;8.13;2.80;;;22.00;70.80;;;;;;5074652;28;20442;-67
2023/05/06 11:56:51;;;;;;;4.13;3.10;;;21.70;73.60;;;;;;5074069;28;20440;-67
2023/05/06 11:59:26;;;;;;;5.03;3.33;;;21.50;74.60;;;;;;5074678;28;20436;-67
2023/05/06 12:02:00;;;;;;;5.60;3.47;;;21.40;76.80;;;;;;5074545;28;20574;-67
2023/05/06 12:04:27;;;;;;;3.83;2.70;;;21.60;78.80;;;;;;5074580;28;20471;-67
2023/05/06 12:06:56;;;;;;;4.30;3.60;;;22.10;81.40;;;;;;5074247;28;20432;-68
2023/05/06 12:09:23;;;;;;;6.80;3.67;;;22.50;77.60;;;;;;5074223;28;20436;-67
2023/05/06 12:11:53;;;;;;;4.07;2.47;;;22.90;75.20;;;;;;5074279;28;20442;-67
2023/05/06 12:14:21;;;;;;;5.57;2.50;;;23.30;73.60;;;;;;5074090;28;20944;-67
2023/05/06 12:16:48;;;;;;;3.60;2.27;;;23.70;70.40;;;;;;5073985;28;20511;-67
2023/05/06 12:19:18;;;;;;;5.17;2.60;;;24.00;65.40;;;;;;5074172;28;20493;-67
2023/05/06 12:21:45;;;;;;;4.53;2.50;;;24.30;63.10;;;;;;5074029;28;20575;-67
2023/05/06 12:24:27;;;;;;;3.90;2.10;;;24.60;60.50;;;;;;5073915;28;20523;-67
2023/05/06 12:26:55;;;;;;;4.60;2.30;;;24.80;58.90;;;;;;5074079;28;20493;-68
2023/05/06 12:29:23;;;;;;;11.57;8.00;;;24.90;59.10;;;;;;5074025;28;20443;-67
2023/05/06 12:32:07;;;;;;;4.23;2.83;;;25.00;58.60;;;;;;5073625;28;20444;-68
2023/05/06 12:34:40;;;;;;;3.63;2.10;;;24.90;58.00;;;;;;5073430;28;20447;-67
2023/05/06 12:37:13;;;;;;;4.13;2.40;;;24.90;59.00;;;;;;5073536;28;20476;-68
2023/05/06 12:39:44;;;;;;;7.90;2.13;;;25.10;58.00;;;;;;5073747;28;20435;-68
2023/05/06 12:42:20;;;;;;;4.47;3.17;;;25.00;55.50;;;;;;5073392;28;20577;-67
2023/05/06 12:44:51;;;;;;;3.90;2.20;;;25.00;58.00;;;;;;5073733;28;20436;-68
2023/05/06 12:47:20;;;;;;;6.23;2.70;;;25.00;55.60;;;;;;5073723;28;20468;-68
2023/05/06 12:49:50;;;;;;;4.00;2.20;;;24.90;55.40;;;;;;5073086;28;20471;-68
2023/05/06 12:52:19;;;;;;;3.70;2.27;;;25.00;56.30;;;;;;5073311;28;20447;-68
2023/05/06 12:54:51;;;;;;;3.57;2.60;;;25.10;57.00;;;;;;5073696;28;20855;-68